Aaron Joseph — WCV9877 — position and weather

sailwx.info

Track history (hours):
 
Tides and Currents Weather Stations Pressure Air Temp Water Temp Dewpoint Dewpoint Depression Visibility Wind Speed Wind Dir Waves Ship Positions

Aaron Joseph

Owner: AARON JOSEPH INC, GOLDEN MEADOW, LA. More information available from US FCC via Universal Licensing System and Coast Guard Vessel Documentation Center.

Last reported at 2017-May-26 11:30 UTC. Time now 2017-May-26 16:51 UTC.
Position N 29°45' W 095°17'.

; draft 2.5 m.

Type: Tug. MMSI: 367028680.

Date/timePositionNaut miles runAvg speedWind from/ knotsBaromVisibWave heightAir tempDewpointWater temp
2017-May-26 11:30N 29°45' W 095°17'0 0.0
2017-May-26 11:00N 29°45' W 095°17'0 0.0
2017-May-26 10:10N 29°45' W 095°17'0 0.0
2017-May-26 10:00N 29°45' W 095°17'0 0.0
2017-May-26 09:30N 29°45' W 095°17'0 0.0
2017-May-26 09:00N 29°45' W 095°17'0 0.0
2017-May-26 08:30N 29°45' W 095°17'0 0.0
2017-May-26 08:00N 29°45' W 095°17'0 0.0
2017-May-26 07:30N 29°45' W 095°17'0 0.0
2017-May-26 07:00N 29°45' W 095°17'0 0.0
2017-May-26 06:31N 29°45' W 095°17'0 0.0
2017-May-26 05:58N 29°45' W 095°17'0 0.0
2017-May-26 05:31N 29°45' W 095°17'0 0.0
2017-May-26 05:00N 29°45' W 095°17'0 0.0
2017-May-26 04:30N 29°45' W 095°17'0 0.0
2017-May-26 04:00N 29°45' W 095°17'0 0.0
2017-May-26 03:31N 29°45' W 095°17'0 0.0
2017-May-26 03:00N 29°45' W 095°17'0 0.0
2017-May-26 02:30N 29°45' W 095°17'0 0.0
2017-May-26 02:00N 29°45' W 095°17'0 0.0
2017-May-26 01:30N 29°45' W 095°17'0 0.0
2017-May-26 01:00N 29°45' W 095°17'0 0.0
2017-May-26 00:30N 29°45' W 095°17'0 0.0
2017-May-26 00:00N 29°45' W 095°17'0 0.0
2017-May-25 23:30N 29°45' W 095°17'0 0.0
2017-May-25 23:01N 29°45' W 095°17'0 0.0
2017-May-25 22:29N 29°45' W 095°17'0 0.0
2017-May-25 21:59N 29°45' W 095°17'0 0.0
2017-May-25 21:30N 29°45' W 095°17'0 0.0
2017-May-25 21:00N 29°45' W 095°17'1 1.2
2017-May-25 20:28N 29°44' W 095°17'1 0.2
2017-May-25 16:27N 29°45' W 095°17'0 0.0
2017-May-25 14:21N 29°45' W 095°17'0 0.1
2017-May-25 12:43N 29°44' W 095°17'1 2.9
2017-May-25 12:29N 29°45' W 095°17'0 0.8
2017-May-25 11:52N 29°45' W 095°17'0 1.1
2017-May-25 11:24N 29°45' W 095°17'0 0.0
2017-May-25 10:44N 29°45' W 095°17'0 0.0
2017-May-25 10:25N 29°45' W 095°17'0 0.0
2017-May-25 10:00N 29°45' W 095°17'0 0.0
2017-May-25 09:28N 29°45' W 095°17'0 0.0
2017-May-25 08:44N 29°45' W 095°17'0 0.0
2017-May-25 07:55N 29°45' W 095°17'0 0.0
2017-May-25 07:30N 29°45' W 095°17'0 0.0
2017-May-25 06:59N 29°45' W 095°17'0 0.0
2017-May-25 06:30N 29°45' W 095°17'0 0.0
2017-May-25 05:59N 29°45' W 095°17'0 0.0
2017-May-25 05:30N 29°45' W 095°17'0 0.0
2017-May-25 05:00N 29°45' W 095°17'0 0.0
2017-May-25 04:30N 29°45' W 095°17'0 0.0
2017-May-25 03:59N 29°45' W 095°17'0 0.0
2017-May-25 03:30N 29°45' W 095°17'0 0.0
2017-May-25 02:58N 29°45' W 095°17'0 0.0
2017-May-25 02:30N 29°45' W 095°17'0 0.0
2017-May-25 02:00N 29°45' W 095°17'0 0.1
2017-May-25 01:30N 29°45' W 095°17'2 4.6
2017-May-25 01:00N 29°44' W 095°15'3 4.9
2017-May-25 00:23N 29°44' W 095°12'2 5.4
2017-May-25 00:00N 29°45' W 095°10'3 5.3
2017-May-24 23:27N 29°45' W 095°06'1 0.5
2017-May-24 21:53N 29°45' W 095°06'3 7.4
2017-May-24 21:30N 29°44' W 095°09'4 7.2
2017-May-24 20:53N 29°44' W 095°14'2 3.3
2017-May-24 20:09N 29°44' W 095°17'1 6.0
2017-May-24 19:58N 29°45' W 095°17'  
2017-May-19 21:49N 29°44' W 095°16'1 3.9
2017-May-19 21:28N 29°43' W 095°14'2 3.7
2017-May-19 20:56N 29°44' W 095°12'2 4.1
2017-May-19 20:26N 29°45' W 095°10'2 4.4
2017-May-19 20:00N 29°44' W 095°08'2 4.1
2017-May-19 19:23N 29°45' W 095°06'1 3.4
2017-May-19 19:00N 29°45' W 095°04'3 4.5
2017-May-19 18:24N 29°44' W 095°02'2 4.6
2017-May-19 18:00N 29°42' W 095°01'2 4.8
2017-May-19 17:30N 29°41' W 094°59'2 4.5
2017-May-19 17:01N 29°38' W 094°58'2 4.5
2017-May-19 16:30N 29°36' W 094°57'2 4.3
2017-May-19 16:00N 29°34' W 094°56'2 4.2
2017-May-19 15:30N 29°33' W 094°54'2 4.4
2017-May-19 15:00N 29°31' W 094°53'2 4.5
2017-May-19 14:30N 29°29' W 094°52'2 0.1
2017-May-17 20:30N 29°31' W 094°53'4 8.2
2017-May-17 20:00N 29°34' W 094°55'4 8.1
2017-May-17 19:30N 29°38' W 094°58'4 8.1
2017-May-17 19:00N 29°41' W 094°59'8 0.4
2017-May-16 22:20N 29°46' W 095°06'  
Track history (hours):
 
Tides and Currents Weather Stations Pressure Air Temp Water Temp Dewpoint Dewpoint Depression Visibility Wind Speed Wind Dir Waves Ship Positions

Aaron Joseph

Owner: AARON JOSEPH INC, GOLDEN MEADOW, LA. More information available from US FCC via Universal Licensing System and Coast Guard Vessel Documentation Center.

Last reported at 2017-May-26 11:30 UTC. Time now 2017-May-26 16:51 UTC.
Position N 29°45' W 095°17'.

; draft 2.5 m.

Type: Tug. MMSI: 367028680.

Date/timePositionNaut miles runAvg speedWind from/ knotsBaromVisibWave heightAir tempDewpointWater temp
2017-May-26 11:30N 29°45' W 095°17'0 0.0
2017-May-26 11:00N 29°45' W 095°17'0 0.0
2017-May-26 10:10N 29°45' W 095°17'0 0.0
2017-May-26 10:00N 29°45' W 095°17'0 0.0
2017-May-26 09:30N 29°45' W 095°17'0 0.0
2017-May-26 09:00N 29°45' W 095°17'0 0.0
2017-May-26 08:30N 29°45' W 095°17'0 0.0
2017-May-26 08:00N 29°45' W 095°17'0 0.0
2017-May-26 07:30N 29°45' W 095°17'0 0.0
2017-May-26 07:00N 29°45' W 095°17'0 0.0
2017-May-26 06:31N 29°45' W 095°17'0 0.0
2017-May-26 05:58N 29°45' W 095°17'0 0.0
2017-May-26 05:31N 29°45' W 095°17'0 0.0
2017-May-26 05:00N 29°45' W 095°17'0 0.0
2017-May-26 04:30N 29°45' W 095°17'0 0.0
2017-May-26 04:00N 29°45' W 095°17'0 0.0
2017-May-26 03:31N 29°45' W 095°17'0 0.0
2017-May-26 03:00N 29°45' W 095°17'0 0.0
2017-May-26 02:30N 29°45' W 095°17'0 0.0
2017-May-26 02:00N 29°45' W 095°17'0 0.0
2017-May-26 01:30N 29°45' W 095°17'0 0.0
2017-May-26 01:00N 29°45' W 095°17'0 0.0
2017-May-26 00:30N 29°45' W 095°17'0 0.0
2017-May-26 00:00N 29°45' W 095°17'0 0.0
2017-May-25 23:30N 29°45' W 095°17'0 0.0
2017-May-25 23:01N 29°45' W 095°17'0 0.0
2017-May-25 22:29N 29°45' W 095°17'0 0.0
2017-May-25 21:59N 29°45' W 095°17'0 0.0
2017-May-25 21:30N 29°45' W 095°17'0 0.0
2017-May-25 21:00N 29°45' W 095°17'1 1.2
2017-May-25 20:28N 29°44' W 095°17'1 0.2
2017-May-25 16:27N 29°45' W 095°17'0 0.0
2017-May-25 14:21N 29°45' W 095°17'0 0.1
2017-May-25 12:43N 29°44' W 095°17'1 2.9
2017-May-25 12:29N 29°45' W 095°17'0 0.8
2017-May-25 11:52N 29°45' W 095°17'0 1.1
2017-May-25 11:24N 29°45' W 095°17'0 0.0
2017-May-25 10:44N 29°45' W 095°17'0 0.0
2017-May-25 10:25N 29°45' W 095°17'0 0.0
2017-May-25 10:00N 29°45' W 095°17'0 0.0
2017-May-25 09:28N 29°45' W 095°17'0 0.0
2017-May-25 08:44N 29°45' W 095°17'0 0.0
2017-May-25 07:55N 29°45' W 095°17'0 0.0
2017-May-25 07:30N 29°45' W 095°17'0 0.0
2017-May-25 06:59N 29°45' W 095°17'0 0.0
2017-May-25 06:30N 29°45' W 095°17'0 0.0
2017-May-25 05:59N 29°45' W 095°17'0 0.0
2017-May-25 05:30N 29°45' W 095°17'0 0.0
2017-May-25 05:00N 29°45' W 095°17'0 0.0
2017-May-25 04:30N 29°45' W 095°17'0 0.0
2017-May-25 03:59N 29°45' W 095°17'0 0.0
2017-May-25 03:30N 29°45' W 095°17'0 0.0
2017-May-25 02:58N 29°45' W 095°17'0 0.0
2017-May-25 02:30N 29°45' W 095°17'0 0.0
2017-May-25 02:00N 29°45' W 095°17'0 0.1
2017-May-25 01:30N 29°45' W 095°17'2 4.6
2017-May-25 01:00N 29°44' W 095°15'3 4.9
2017-May-25 00:23N 29°44' W 095°12'2 5.4
2017-May-25 00:00N 29°45' W 095°10'3 5.3
2017-May-24 23:27N 29°45' W 095°06'1 0.5
2017-May-24 21:53N 29°45' W 095°06'3 7.4
2017-May-24 21:30N 29°44' W 095°09'4 7.2
2017-May-24 20:53N 29°44' W 095°14'2 3.3
2017-May-24 20:09N 29°44' W 095°17'1 6.0
2017-May-24 19:58N 29°45' W 095°17'  
2017-May-19 21:49N 29°44' W 095°16'1 3.9
2017-May-19 21:28N 29°43' W 095°14'2 3.7
2017-May-19 20:56N 29°44' W 095°12'2 4.1
2017-May-19 20:26N 29°45' W 095°10'2 4.4
2017-May-19 20:00N 29°44' W 095°08'2 4.1
2017-May-19 19:23N 29°45' W 095°06'1 3.4
2017-May-19 19:00N 29°45' W 095°04'3 4.5
2017-May-19 18:24N 29°44' W 095°02'2 4.6
2017-May-19 18:00N 29°42' W 095°01'2 4.8
2017-May-19 17:30N 29°41' W 094°59'2 4.5
2017-May-19 17:01N 29°38' W 094°58'2 4.5
2017-May-19 16:30N 29°36' W 094°57'2 4.3
2017-May-19 16:00N 29°34' W 094°56'2 4.2
2017-May-19 15:30N 29°33' W 094°54'2 4.4
2017-May-19 15:00N 29°31' W 094°53'2 4.5
2017-May-19 14:30N 29°29' W 094°52'2 0.1
2017-May-17 20:30N 29°31' W 094°53'4 8.2
2017-May-17 20:00N 29°34' W 094°55'4 8.1
2017-May-17 19:30N 29°38' W 094°58'4 8.1
2017-May-17 19:00N 29°41' W 094°59'8 0.4
2017-May-16 22:20N 29°46' W 095°06'  

Dump ship's entire track history